Time;durP1;ratioP1;P1;durP2;ratioP2;P2;SDS_P1;SDS_P2;PMS_P1;PMS_P2;Temp;Humidity;BMP_temperature;BMP_pressure;BME280_temperature;BME280_humidity;BME280_pressure;Samples;Min_cycle;Max_cycle;Signal;HPM_P1;HPM_P2
2021/03/06 00:00:23;;;;;;;16.75;10.02;;;;;;;7.54;59.38;98674.31;5059595;28;45335;-83
2021/03/06 00:02:51;;;;;;;16.52;10.43;;;;;;;7.52;59.73;98677.09;5060002;28;45487;-84
2021/03/06 00:05:17;;;;;;;14.93;9.55;;;;;;;7.48;59.69;98678.28;5071560;28;48214;-83
2021/03/06 00:07:42;;;;;;;16.38;10.30;;;;;;;7.52;59.36;98679.75;5071308;28;45288;-83
2021/03/06 00:10:13;;;;;;;16.35;10.57;;;;;;;7.58;59.21;98681.88;5061243;27;45478;-83
2021/03/06 00:12:45;;;;;;;17.55;10.45;;;;;;;7.56;59.44;98683.81;5059642;27;45287;-83
2021/03/06 00:15:18;;;;;;;17.80;10.30;;;;;;;7.51;59.83;98680.72;5072651;28;45318;-83
2021/03/06 00:17:43;;;;;;;16.13;10.10;;;;;;;7.43;59.22;98678.69;5074973;28;45365;-83
2021/03/06 00:20:09;;;;;;;17.38;10.55;;;;;;;7.38;59.26;98690.59;5072879;28;45506;-83
2021/03/06 00:22:35;;;;;;;17.42;11.07;;;;;;;7.34;59.54;98683.88;5059409;28;45574;-83
2021/03/06 00:25:06;;;;;;;16.88;11.13;;;;;;;7.42;59.69;98686.72;5058974;28;45432;-83
2021/03/06 00:27:31;;;;;;;;;;;;;;;7.41;59.97;98693.00;5059839;28;45320;-83
2021/03/06 00:29:57;;;;;;;16.23;10.38;;;;;;;7.38;59.38;98680.00;5058999;28;45345;-83
2021/03/06 00:32:22;;;;;;;17.48;10.80;;;;;;;7.28;59.71;98690.50;5068134;28;45709;-82
2021/03/06 00:34:48;;;;;;;16.42;11.02;;;;;;;7.25;60.03;98688.13;5072442;27;46286;-83
2021/03/06 00:37:13;;;;;;;20.02;11.73;;;;;;;7.27;59.44;98676.44;5059046;28;45217;-83
2021/03/06 00:39:38;;;;;;;18.92;10.95;;;;;;;7.38;59.47;98680.88;5066252;28;45222;-83
2021/03/06 00:42:04;;;;;;;17.25;10.98;;;;;;;7.33;60.07;98687.47;5070288;27;45317;-83
2021/03/06 00:44:30;;;;;;;16.58;10.65;;;;;;;7.36;59.56;98681.94;5072407;28;46003;-83
2021/03/06 00:46:56;;;;;;;18.35;10.90;;;;;;;7.38;59.98;98685.31;5058815;28;45336;-84
2021/03/06 00:49:22;;;;;;;17.35;11.07;;;;;;;7.39;60.40;98681.69;5059106;28;45416;-84
2021/03/06 00:51:47;;;;;;;17.25;11.13;;;;;;;7.35;60.83;98682.91;5059751;28;45290;-83
2021/03/06 00:54:13;;;;;;;17.63;11.13;;;;;;;7.30;60.25;98680.66;5072152;27;46007;-84
2021/03/06 00:56:38;;;;;;;17.13;11.02;;;;;;;7.34;60.42;98686.50;5058899;28;45350;-82
2021/03/06 00:59:04;;;;;;;22.27;11.68;;;;;;;7.36;60.48;98681.94;5058375;28;45327;-83
2021/03/06 01:01:29;;;;;;;17.58;11.38;;;;;;;7.41;60.19;98679.75;5058630;28;45293;-83
2021/03/06 01:03:55;;;;;;;17.80;11.40;;;;;;;7.27;61.22;98688.84;5061247;28;46125;-83
2021/03/06 01:06:20;;;;;;;18.17;11.43;;;;;;;7.29;60.42;98685.09;5065144;28;45216;-82
2021/03/06 01:08:46;;;;;;;17.55;11.38;;;;;;;7.29;61.17;98682.44;5058976;28;45242;-83
2021/03/06 01:11:12;;;;;;;17.05;10.73;;;;;;;7.28;60.21;98685.22;5058710;28;45230;-83
2021/03/06 01:13:37;;;;;;;18.65;11.55;;;;;;;7.26;60.71;98687.97;5063531;27;45280;-84
2021/03/06 01:16:03;;;;;;;18.65;11.20;;;;;;;7.29;60.26;98677.16;5074153;27;45409;-84
2021/03/06 01:18:28;;;;;;;19.70;12.45;;;;;;;7.25;60.97;98686.31;5073597;27;45361;-84
2021/03/06 01:20:54;;;;;;;19.20;11.50;;;;;;;7.21;61.71;98681.41;5058745;28;45300;-83
2021/03/06 01:23:20;;;;;;;18.85;12.05;;;;;;;7.20;60.96;98688.47;5058158;28;45519;-84
2021/03/06 01:25:46;;;;;;;19.98;11.55;;;;;;;7.20;60.88;98683.19;5058285;28;45327;-83
2021/03/06 01:28:11;;;;;;;17.85;11.27;;;;;;;7.29;61.01;98681.63;5058449;28;45403;-83
2021/03/06 01:30:37;;;;;;;19.40;11.90;;;;;;;7.20;61.36;98682.38;5058176;28;45535;-83
2021/03/06 01:33:04;;;;;;;17.83;11.38;;;;;;;7.21;61.16;98679.56;5058019;28;45977;-84
2021/03/06 01:35:29;;;;;;;18.95;12.27;;;;;;;7.29;60.87;98686.91;5058063;28;45412;-83
2021/03/06 01:37:55;;;;;;;17.13;10.85;;;;;;;7.18;60.19;98677.19;5058070;28;45454;-84
2021/03/06 01:40:28;;;;;;;18.08;11.32;;;;;;;7.23;60.11;98684.75;5058232;28;45273;-84
2021/03/06 01:42:55;;;;;;;16.80;11.38;;;;;;;7.28;60.78;98682.59;5074973;28;46564;-84
2021/03/06 01:45:20;;;;;;;18.10;11.77;;;;;;;7.29;61.26;98684.25;5062923;28;45813;-83
2021/03/06 01:47:46;;;;;;;18.10;12.50;;;;;;;7.36;60.58;98676.66;5072086;27;45218;-84
2021/03/06 01:50:18;;;;;;;17.50;11.77;;;;;;;7.46;60.57;98682.88;5058131;28;45221;-83
2021/03/06 01:52:43;;;;;;;18.02;10.73;;;;;;;7.32;61.36;98686.66;5082106;27;48499;-84
2021/03/06 01:55:09;;;;;;;17.15;11.82;;;;;;;7.32;61.42;98680.50;5063715;27;45343;-83
2021/03/06 01:57:35;;;;;;;18.15;11.68;;;;;;;7.20;60.80;98680.53;5058215;28;45627;-82
2021/03/06 02:00:00;;;;;;;20.63;12.07;;;;;;;7.14;61.23;98679.25;5057804;28;45455;-82
2021/03/06 02:02:26;;;;;;;18.58;11.90;;;;;;;7.23;60.91;98682.94;5061286;28;47197;-82
2021/03/06 02:04:51;;;;;;;18.90;12.32;;;;;;;7.23;61.15;98682.94;5067230;28;45277;-83
2021/03/06 02:07:17;;;;;;;18.73;11.68;;;;;;;7.17;61.55;98678.16;5057891;28;45427;-82
2021/03/06 02:09:42;;;;;;;18.20;11.82;;;;;;;7.20;62.50;98677.06;5057736;28;45265;-82
2021/03/06 02:12:14;;;;;;;19.08;12.35;;;;;;;7.20;63.18;98688.47;5057715;27;45367;-82
2021/03/06 02:14:51;;;;;;;22.98;12.93;;;;;;;7.24;61.99;98678.50;5071047;28;45326;-82
2021/03/06 02:17:28;;;;;;;20.13;12.75;;;;;;;7.11;62.33;98684.78;5075523;28;45194;-83
2021/03/06 02:20:27;;;;;;;21.30;13.25;;;;;;;7.15;61.58;98685.38;5072770;28;45564;-83
2021/03/06 02:23:30;;;;;;;19.63;13.13;;;;;;;7.25;60.56;98691.59;5067632;28;47506;-82
2021/03/06 02:26:20;;;;;;;18.38;12.45;;;;;;;7.30;61.69;98689.41;5070998;28;45265;-82
2021/03/06 02:29:03;;;;;;;19.67;12.50;;;;;;;7.11;62.53;98684.78;5057787;28;45165;-83
2021/03/06 02:31:31;;;;;;;19.77;12.40;;;;;;;7.23;61.86;98682.94;5057107;28;45457;-82
2021/03/06 02:34:06;;;;;;;20.85;12.63;;;;;;;7.32;61.33;98688.44;5057344;28;45602;-82
2021/03/06 02:36:34;;;;;;;21.25;12.50;;;;;;;7.34;62.76;98684.72;5057697;28;45236;-82
2021/03/06 02:39:02;;;;;;;19.25;12.55;;;;;;;7.28;62.30;98688.69;5057280;28;45238;-82
2021/03/06 02:41:30;;;;;;;20.92;12.82;;;;;;;7.15;62.94;98682.72;5065831;28;45426;-82
2021/03/06 02:43:57;;;;;;;19.85;12.82;;;;;;;7.21;62.46;98692.81;5074618;28;48750;-83
2021/03/06 02:46:25;;;;;;;22.63;12.80;;;;;;;7.14;63.19;98692.47;5068278;28;45330;-82
2021/03/06 02:48:53;;;;;;;18.23;12.25;;;;;;;7.24;62.53;98697.84;5057402;28;45430;-83
2021/03/06 02:51:19;;;;;;;18.85;11.95;;;;;;;7.22;63.10;98702.41;5057489;28;45396;-82
2021/03/06 02:53:44;;;;;;;19.58;12.75;;;;;;;7.18;62.62;98703.63;5070797;28;45361;-82
2021/03/06 02:56:10;;;;;;;19.17;12.93;;;;;;;7.21;62.26;98708.69;5057343;28;46746;-82
2021/03/06 02:58:45;;;;;;;19.58;12.45;;;;;;;7.17;63.22;98707.25;5057315;28;45459;-83
2021/03/06 03:01:26;;;;;;;18.92;12.13;;;;;;;7.15;62.35;98698.59;5057127;28;45318;-82
2021/03/06 03:04:00;;;;;;;;;;;;;;;6.97;63.93;98703.53;5059740;28;46125;-82
2021/03/06 03:06:36;;;;;;;18.58;12.00;;;;;;;7.10;62.89;98706.06;5062229;27;45436;-82
2021/03/06 03:09:13;;;;;;;17.75;11.32;;;;;;;7.13;62.59;98703.16;5057238;28;45354;-82
2021/03/06 03:12:02;;;;;;;16.95;11.82;;;;;;;7.09;62.98;98699.94;5056845;27;45300;-82
2021/03/06 03:14:37;;;;;;;18.27;12.18;;;;;;;6.98;63.38;98698.13;5069158;28;45426;-82
2021/03/06 03:17:10;;;;;;;18.10;11.57;;;;;;;6.92;63.38;98706.56;5072619;27;45444;-82
2021/03/06 03:20:04;;;;;;;18.80;11.73;;;;;;;6.69;63.26;98706.56;5062662;27;45225;-82
2021/03/06 03:22:33;;;;;;;16.65;11.60;;;;;;;6.81;64.36;98699.47;5059138;28;45286;-83
2021/03/06 03:25:00;;;;;;;16.45;11.20;;;;;;;6.81;63.75;98707.41;5060035;28;45606;-83
2021/03/06 03:27:28;;;;;;;18.00;12.18;;;;;;;6.82;64.31;98702.97;5068133;28;45548;-83
2021/03/06 03:29:54;;;;;;;17.15;11.80;;;;;;;6.92;63.46;98706.56;5059969;28;45322;-83
2021/03/06 03:32:22;;;;;;;20.40;12.93;;;;;;;6.81;64.60;98710.03;5060195;28;45316;-84
2021/03/06 03:34:48;;;;;;;19.00;12.35;;;;;;;6.80;64.37;98716.28;5059854;28;45360;-84
2021/03/06 03:37:14;;;;;;;17.63;12.02;;;;;;;6.71;64.12;98715.22;5068659;28;45282;-84
2021/03/06 03:39:40;;;;;;;17.33;11.82;;;;;;;6.70;64.49;98718.81;5060109;28;45172;-84
2021/03/06 03:42:08;;;;;;;18.63;11.50;;;;;;;6.72;63.23;98716.06;5073199;28;45343;-84
2021/03/06 03:44:35;;;;;;;17.52;12.30;;;;;;;6.76;64.31;98720.13;5072580;27;45496;-84
2021/03/06 03:47:02;;;;;;;17.58;11.98;;;;;;;6.76;64.20;98720.13;5058683;28;45264;-84
2021/03/06 03:49:28;;;;;;;18.90;12.05;;;;;;;6.62;63.83;98717.72;5063191;28;45425;-83
2021/03/06 03:51:54;;;;;;;18.33;11.93;;;;;;;6.72;64.01;98726.63;5074402;28;45470;-83
2021/03/06 03:54:20;;;;;;;16.83;12.20;;;;;;;6.64;63.87;98729.03;5072141;27;45508;-84
2021/03/06 03:56:46;;;;;;;19.10;12.23;;;;;;;6.74;63.48;98732.63;5059793;28;45365;-83
2021/03/06 03:59:11;;;;;;;19.50;12.13;;;;;;;6.61;63.95;98732.72;5060177;28;45307;-82
2021/03/06 04:01:41;;;;;;;19.20;12.25;;;;;;;6.67;63.88;98740.22;5059492;28;45302;-83
2021/03/06 04:04:07;;;;;;;18.50;12.02;;;;;;;6.45;64.17;98737.53;5063853;28;48212;-83
2021/03/06 04:06:34;;;;;;;19.60;12.32;;;;;;;6.53;64.51;98741.28;5072936;28;45302;-83
2021/03/06 04:08:59;;;;;;;19.48;12.18;;;;;;;6.55;63.79;98743.78;5076850;27;45205;-84
2021/03/06 04:11:25;;;;;;;17.25;12.02;;;;;;;6.59;63.88;98745.22;5079811;28;45696;-83
2021/03/06 04:13:50;;;;;;;17.42;11.60;;;;;;;6.48;64.07;98745.22;5067551;28;46468;-83
2021/03/06 04:16:15;;;;;;;20.42;12.05;;;;;;;6.64;63.88;98752.81;5078137;27;45338;-83
2021/03/06 04:18:41;;;;;;;18.77;11.93;;;;;;;6.72;64.87;98756.56;5075823;27;45416;-84
2021/03/06 04:21:06;;;;;;;18.98;12.55;;;;;;;6.66;64.12;98751.75;5059598;28;45474;-83
2021/03/06 04:23:32;;;;;;;20.35;12.93;;;;;;;6.63;64.55;98757.28;5059106;28;45482;-83
2021/03/06 04:25:57;;;;;;;19.88;12.20;;;;;;;6.63;64.69;98757.28;5066999;28;45392;-83
2021/03/06 04:28:23;;;;;;;18.58;12.18;;;;;;;6.57;65.49;98758.56;5075812;27;45368;-83
2021/03/06 04:30:48;;;;;;;20.02;11.88;;;;;;;6.50;64.71;98759.16;5059056;28;45605;-83
2021/03/06 04:33:14;;;;;;;18.42;11.85;;;;;;;6.33;64.80;98761.28;5070136;28;48025;-83
2021/03/06 04:35:39;;;;;;;17.25;12.27;;;;;;;6.53;64.60;98762.41;5078639;28;45347;-83
2021/03/06 04:38:04;;;;;;;18.27;12.48;;;;;;;6.46;64.43;98763.84;5075352;27;45339;-83
2021/03/06 04:40:30;;;;;;;18.67;11.88;;;;;;;6.45;64.85;98764.81;5059342;28;45532;-83
2021/03/06 04:42:56;;;;;;;17.60;11.60;;;;;;;6.43;64.90;98779.94;5076473;28;45957;-83
2021/03/06 04:45:21;;;;;;;19.63;11.77;;;;;;;6.57;64.23;98769.16;5065066;28;45284;-83
2021/03/06 04:47:47;;;;;;;17.52;11.93;;;;;;;6.59;64.23;98776.94;5059039;28;45575;-84
2021/03/06 04:50:13;;;;;;;18.58;12.15;;;;;;;6.42;65.15;98772.97;5059226;28;45214;-84
2021/03/06 04:52:39;;;;;;;17.10;11.45;;;;;;;6.43;64.32;98777.28;5071875;28;47141;-83
2021/03/06 04:55:06;;;;;;;17.27;11.70;;;;;;;6.33;64.57;98781.59;5073707;28;45372;-83
2021/03/06 04:57:31;;;;;;;17.42;12.38;;;;;;;6.41;65.10;98779.22;5064064;28;45589;-84
2021/03/06 04:59:57;;;;;;;19.70;12.50;;;;;;;6.23;65.36;98781.44;5078750;28;45293;-84
2021/03/06 05:02:22;;;;;;;17.63;11.30;;;;;;;6.08;65.45;98781.63;5078739;27;46230;-84
2021/03/06 05:04:48;;;;;;;21.30;12.88;;;;;;;6.07;65.27;98785.22;5077568;27;45450;-84
2021/03/06 05:07:13;;;;;;;18.25;12.50;;;;;;;6.05;65.65;98784.50;5077418;28;45481;-83
2021/03/06 05:09:38;;;;;;;22.23;12.88;;;;;;;5.97;65.15;98790.28;5065260;27;45443;-84
2021/03/06 05:12:04;;;;;;;18.75;12.50;;;;;;;5.98;66.00;98786.69;5064486;28;47585;-84
2021/03/06 05:14:30;;;;;;;19.17;12.85;;;;;;;6.02;66.07;98786.50;5058361;28;45326;-84
2021/03/06 05:16:55;;;;;;;19.05;12.18;;;;;;;5.93;66.29;98783.56;5073509;28;45276;-84
2021/03/06 05:19:20;;;;;;;18.38;11.93;;;;;;;5.97;65.83;98781.56;5058464;27;45347;-84
2021/03/06 05:21:46;;;;;;;19.13;12.02;;;;;;;5.89;65.79;98783.91;5058406;28;45229;-85
2021/03/06 05:24:11;;;;;;;20.30;12.68;;;;;;;5.83;66.21;98783.41;5064444;28;45225;-84
2021/03/06 05:26:37;;;;;;;18.75;12.02;;;;;;;5.81;66.09;98779.19;5078382;28;45365;-82
2021/03/06 05:29:02;;;;;;;19.42;12.30;;;;;;;5.79;66.24;98784.59;5070886;28;45642;-83
2021/03/06 05:31:28;;;;;;;21.52;12.88;;;;;;;5.80;65.77;98786.28;5071512;28;45284;-82
2021/03/06 05:33:53;;;;;;;18.20;12.20;;;;;;;5.75;65.96;98785.78;5058304;27;45332;-84
2021/03/06 05:36:19;;;;;;;19.10;11.80;;;;;;;5.75;66.70;98788.41;5058727;28;45206;-81
2021/03/06 05:38:45;;;;;;;19.88;12.68;;;;;;;5.79;66.73;98794.28;5058396;28;45397;-89
2021/03/06 05:41:11;;;;;;;20.83;12.85;;;;;;;5.76;66.59;98795.38;5060722;28;46154;-84
2021/03/06 05:43:37;;;;;;;20.10;12.88;;;;;;;5.73;66.63;98794.75;5072373;27;45330;-85
2021/03/06 05:46:04;;;;;;;19.73;12.38;;;;;;;5.67;67.38;98791.59;5070622;28;45334;-82
2021/03/06 05:48:29;;;;;;;20.00;12.68;;;;;;;5.75;67.09;98801.63;5063971;28;45431;-84
2021/03/06 05:50:55;;;;;;;19.85;12.52;;;;;;;5.79;67.06;98797.78;5065597;28;46029;-83
2021/03/06 05:53:21;;;;;;;20.60;12.55;;;;;;;5.84;67.25;98795.66;5076120;27;45763;-84
2021/03/06 05:55:53;;;;;;;20.20;12.50;;;;;;;5.84;67.19;98793.03;5059294;28;45333;-86
2021/03/06 05:58:21;;;;;;;18.17;12.30;;;;;;;5.61;67.35;98799.09;5061717;28;45289;-86
2021/03/06 06:00:47;;;;;;;21.65;12.63;;;;;;;5.72;67.16;98801.81;5068468;28;45441;-83
2021/03/06 06:03:15;;;;;;;18.52;12.45;;;;;;;5.78;67.25;98798.75;5068895;27;46787;-81
2021/03/06 06:05:41;;;;;;;20.77;12.50;;;;;;;5.87;67.58;98806.94;5073154;28;45615;-79
2021/03/06 06:08:08;;;;;;;19.92;13.15;;;;;;;5.77;66.93;98798.84;5073317;27;45293;-82
2021/03/06 06:10:34;;;;;;;19.13;12.55;;;;;;;5.76;67.20;98798.03;5063855;27;45659;-80
2021/03/06 06:13:00;;;;;;;18.73;12.27;;;;;;;5.82;66.72;98802.84;5065465;27;45391;-87
2021/03/06 06:15:26;;;;;;;20.35;12.45;;;;;;;5.80;67.53;98811.81;5059237;28;45356;-79
2021/03/06 06:17:51;;;;;;;20.10;12.30;;;;;;;5.90;66.96;98810.19;5077597;27;45171;-79
2021/03/06 06:20:18;;;;;;;19.83;12.82;;;;;;;5.75;67.31;98803.41;5058489;28;46045;-80
2021/03/06 06:22:44;;;;;;;19.20;12.63;;;;;;;5.84;67.03;98800.06;5059604;28;45384;-80
2021/03/06 06:25:10;;;;;;;19.17;12.73;;;;;;;5.91;67.17;98801.31;5073388;28;45404;-80
2021/03/06 06:27:36;;;;;;;19.60;12.70;;;;;;;5.78;67.42;98796.13;5073406;27;45521;-80
2021/03/06 06:30:11;;;;;;;23.27;13.18;;;;;;;5.83;67.17;98807.19;5071176;28;46033;-80
2021/03/06 06:32:44;;;;;;;21.45;12.82;;;;;;;5.97;67.18;98800.84;5070682;28;45358;-78
2021/03/06 06:35:13;;;;;;;20.90;13.20;;;;;;;5.97;67.66;98810.59;5070269;28;45541;-79
2021/03/06 06:37:38;;;;;;;70.03;34.25;;;;;;;5.87;67.32;98812.22;5067650;28;45620;-79
2021/03/06 06:40:24;;;;;;;27.35;16.33;;;;;;;5.83;67.62;98809.81;5064999;28;45356;-79
2021/03/06 06:42:50;;;;;;;25.60;15.65;;;;;;;5.76;68.19;98823.56;5065489;27;45590;-79
2021/03/06 06:45:16;;;;;;;20.42;13.50;;;;;;;5.64;68.62;98822.63;5067480;28;45288;-80
2021/03/06 06:47:53;;;;;;;20.67;13.77;;;;;;;5.75;67.88;98822.72;5062077;27;45429;-80
2021/03/06 06:50:33;;;;;;;20.90;12.93;;;;;;;5.67;68.33;98827.69;5070526;28;47898;-79
2021/03/06 06:52:58;;;;;;;20.37;13.13;;;;;;;5.84;67.23;98822.06;5068930;28;45266;-78
2021/03/06 06:55:44;;;;;;;22.92;14.05;;;;;;;6.08;66.58;98831.78;5069077;27;45350;-80
2021/03/06 06:58:09;;;;;;;24.85;14.30;;;;;;;6.23;67.01;98836.91;5069414;27;45539;-80
2021/03/06 07:00:35;;;;;;;20.65;12.65;;;;;;;6.23;65.22;98842.19;5059817;28;45803;-79
2021/03/06 07:03:03;;;;;;;22.85;13.35;;;;;;;6.40;66.08;98844.41;5061299;28;45415;-79
2021/03/06 07:05:32;;;;;;;18.38;12.23;;;;;;;6.49;64.86;98839.38;5073075;28;45356;-79
2021/03/06 07:08:00;;;;;;;20.45;12.88;;;;;;;6.52;65.10;98849.72;5073499;27;45437;-80
2021/03/06 07:10:33;;;;;;;20.20;12.27;;;;;;;6.66;64.67;98848.69;5067831;28;46233;-80
2021/03/06 07:13:04;;;;;;;20.33;12.55;;;;;;;6.63;64.39;98855.06;5072940;28;45463;-79
2021/03/06 07:15:30;;;;;;;21.17;14.10;;;;;;;6.58;64.58;98854.53;5061403;28;45324;-79
2021/03/06 07:17:58;;;;;;;18.55;12.00;;;;;;;6.47;64.85;98855.38;5079089;27;45462;-79
2021/03/06 07:20:23;;;;;;;19.15;12.55;;;;;;;6.18;67.82;98860.16;5059748;28;45499;-79
2021/03/06 07:22:53;;;;;;;20.48;12.90;;;;;;;6.13;66.27;98869.28;5060588;28;45645;-79
2021/03/06 07:25:19;;;;;;;21.30;13.70;;;;;;;6.12;65.39;98875.50;5059695;28;45739;-77
2021/03/06 07:27:45;;;;;;;19.75;12.93;;;;;;;6.20;66.52;98880.25;5073905;28;45407;-78
2021/03/06 07:30:14;;;;;;;22.70;13.75;;;;;;;6.24;66.15;98886.13;5077962;27;45801;-78
2021/03/06 07:32:41;;;;;;;21.95;14.05;;;;;;;6.29;66.14;98886.63;5076957;27;45493;-78
2021/03/06 07:35:09;;;;;;;23.48;14.00;;;;;;;6.32;67.80;98893.50;5072939;28;45473;-79
2021/03/06 07:37:35;;;;;;;19.27;12.68;;;;;;;6.21;67.25;98900.41;5060616;28;45603;-79
2021/03/06 07:40:07;;;;;;;20.60;13.63;;;;;;;6.30;65.73;98898.06;5069804;28;47085;-78
2021/03/06 07:42:43;;;;;;;22.38;13.80;;;;;;;6.32;65.59;98896.13;5070661;27;45516;-79
2021/03/06 07:45:11;;;;;;;19.08;13.43;;;;;;;6.35;65.00;98895.91;5064026;28;45217;-81
2021/03/06 07:47:39;;;;;;;20.25;12.45;;;;;;;6.47;64.46;98902.06;5072606;28;45655;-80
2021/03/06 07:50:08;;;;;;;20.83;13.63;;;;;;;6.40;66.33;98910.44;5065793;27;45867;-79
2021/03/06 07:52:37;;;;;;;20.60;13.43;;;;;;;6.47;65.04;98907.34;5076918;27;45233;-79
2021/03/06 07:55:04;;;;;;;22.42;14.20;;;;;;;6.53;65.47;98907.75;5074065;27;45424;-79
2021/03/06 07:57:30;;;;;;;19.75;12.73;;;;;;;6.52;64.10;98910.50;5060952;28;45663;-79
2021/03/06 07:59:56;;;;;;;22.33;12.93;;;;;;;6.49;64.90;98910.72;5076712;28;45802;-79
2021/03/06 08:02:31;;;;;;;20.48;13.52;;;;;;;6.43;65.36;98909.41;5065645;27;45428;-79
2021/03/06 08:04:57;;;;;;;20.48;13.40;;;;;;;6.52;65.30;98921.06;5061828;28;45245;-78
2021/03/06 08:07:41;;;;;;;21.75;13.40;;;;;;;6.45;65.31;98919.84;5069970;28;45635;-78
2021/03/06 08:10:07;;;;;;;20.83;13.80;;;;;;;6.35;64.35;98917.03;5067384;28;47232;-78
2021/03/06 08:12:35;;;;;;;20.80;14.60;;;;;;;6.47;65.52;98926.72;5074160;28;45524;-81
2021/03/06 08:15:27;;;;;;;21.75;14.80;;;;;;;6.48;65.15;98924.91;5067576;27;45311;-78
2021/03/06 08:17:53;;;;;;;22.40;15.13;;;;;;;6.35;65.91;98927.63;5062882;28;45430;-79
2021/03/06 08:20:29;;;;;;;20.00;12.98;;;;;;;6.57;64.72;98914.50;5058823;28;45340;-77
2021/03/06 08:23:16;;;;;;;21.42;13.95;;;;;;;6.53;65.30;98922.75;5058710;28;45334;-78
2021/03/06 08:25:41;;;;;;;23.17;14.13;;;;;;;6.44;65.96;98926.94;5060512;28;45363;-77
2021/03/06 08:28:27;;;;;;;21.08;13.85;;;;;;;6.50;65.83;98923.84;5066005;27;45505;-82
2021/03/06 08:30:53;;;;;;;23.20;14.55;;;;;;;6.51;66.25;98922.03;5067077;28;48095;-83
2021/03/06 08:33:19;;;;;;;20.90;13.27;;;;;;;6.49;66.79;98918.66;5077340;28;45413;-84
2021/03/06 08:35:45;;;;;;;19.17;12.98;;;;;;;6.45;68.50;98925.13;5063072;27;45517;-83
2021/03/06 08:38:27;;;;;;;20.25;12.57;;;;;;;6.42;68.65;98927.03;5058597;28;45289;-83
2021/03/06 08:40:53;;;;;;;22.30;14.48;;;;;;;6.38;68.91;98928.22;5059546;28;46064;-84
2021/03/06 08:43:19;;;;;;;22.45;13.50;;;;;;;6.63;67.78;98930.84;5067868;28;45330;-83
2021/03/06 08:45:44;;;;;;;21.40;12.77;;;;;;;6.72;68.43;98931.03;5066740;27;45479;-83
2021/03/06 08:48:09;;;;;;;19.92;13.13;;;;;;;6.44;68.27;98932.22;5069239;27;45506;-83
2021/03/06 08:50:36;;;;;;;21.08;13.10;;;;;;;6.71;67.05;98931.97;5075211;28;45541;-82
2021/03/06 08:53:15;;;;;;;22.15;13.55;;;;;;;6.56;67.24;98933.09;5067883;27;45405;-82
2021/03/06 08:55:42;;;;;;;21.70;13.68;;;;;;;6.73;68.50;98923.91;5071165;27;45522;-82
2021/03/06 08:58:09;;;;;;;21.88;12.48;;;;;;;6.79;67.90;98933.22;5064898;28;45550;-82
2021/03/06 09:00:39;;;;;;;19.55;12.80;;;;;;;6.70;68.44;98930.28;5060203;27;45479;-83
2021/03/06 09:03:13;;;;;;;20.38;13.05;;;;;;;6.62;69.80;98923.88;5077997;27;45322;-81
2021/03/06 09:05:41;;;;;;;24.88;14.73;;;;;;;6.69;67.19;98933.91;5059874;28;45487;-83
2021/03/06 09:08:07;;;;;;;22.58;14.55;;;;;;;6.82;67.28;98922.41;5066218;28;45371;-82
2021/03/06 09:10:32;;;;;;;23.60;14.27;;;;;;;6.98;66.93;98922.91;5063901;27;45354;-84
2021/03/06 09:13:19;;;;;;;27.30;14.65;;;;;;;7.17;65.73;98921.50;5062390;28;45411;-84
2021/03/06 09:15:47;;;;;;;28.70;14.48;;;;;;;7.27;65.39;98922.47;5063735;28;45439;-82
2021/03/06 09:18:17;;;;;;;25.20;14.43;;;;;;;7.55;64.09;98923.00;5068319;27;45469;-83
2021/03/06 09:20:47;;;;;;;21.90;15.10;;;;;;;7.53;64.81;98922.28;5070052;28;45509;-83
2021/03/06 09:23:26;;;;;;;21.67;15.00;;;;;;;7.68;64.57;98925.50;5070362;28;46392;-83
2021/03/06 09:25:52;;;;;;;22.55;14.48;;;;;;;8.35;61.23;98912.25;5058384;28;45481;-81
2021/03/06 09:28:26;;;;;;;25.55;15.98;;;;;;;8.98;59.10;98913.34;5062481;28;45547;-82
2021/03/06 09:30:52;;;;;;;25.10;15.48;;;;;;;10.13;55.45;98928.22;5071668;28;48036;-81
2021/03/06 09:33:23;;;;;;;22.42;13.77;;;;;;;10.60;53.84;98921.47;5062932;28;45569;-81
2021/03/06 09:36:13;;;;;;;23.27;14.65;;;;;;;11.74;51.66;98917.16;5071603;28;45515;-83
2021/03/06 09:38:48;;;;;;;20.67;13.57;;;;;;;12.83;50.54;98915.50;5063566;28;45645;-82
2021/03/06 09:41:17;;;;;;;22.35;15.07;;;;;;;13.08;46.63;98919.22;5069046;28;46427;-83
2021/03/06 09:43:48;;;;;;;18.65;13.23;;;;;;;13.14;46.51;98918.59;5076737;27;45187;-82
2021/03/06 09:46:35;;;;;;;20.55;13.73;;;;;;;13.68;46.52;98914.91;5066253;28;45533;-81
2021/03/06 09:49:09;;;;;;;17.85;13.23;;;;;;;14.11;45.02;98914.91;5060462;27;45293;-80
2021/03/06 09:51:51;;;;;;;19.25;13.52;;;;;;;14.12;45.74;98918.44;5057510;28;45440;-80
2021/03/06 09:54:20;;;;;;;20.52;13.70;;;;;;;14.21;45.49;98924.66;5065395;28;45371;-80
2021/03/06 09:56:45;;;;;;;21.23;13.75;;;;;;;14.00;45.59;98921.41;5075536;27;45332;-80
2021/03/06 09:59:11;;;;;;;21.10;15.18;;;;;;;14.27;44.54;98918.66;5060936;27;45684;-80
2021/03/06 10:01:37;;;;;;;19.55;13.88;;;;;;;14.72;44.15;98916.56;5071801;28;46021;-79
2021/03/06 10:04:17;;;;;;;18.73;13.27;;;;;;;14.58;42.01;98915.34;5067005;28;45468;-79
2021/03/06 10:06:45;;;;;;;17.38;12.90;;;;;;;14.54;44.14;98909.47;5056617;28;45561;-80
2021/03/06 10:09:13;;;;;;;17.95;12.32;;;;;;;14.65;43.08;98910.19;5073023;28;45463;-80
2021/03/06 10:11:41;;;;;;;19.30;13.00;;;;;;;14.34;43.51;98906.28;5064674;27;46360;-80
2021/03/06 10:14:09;;;;;;;20.23;13.60;;;;;;;13.90;45.31;98903.81;5058207;28;45492;-80
2021/03/06 10:16:44;;;;;;;20.95;13.27;;;;;;;13.30;45.58;98897.50;5076067;28;45470;-79
2021/03/06 10:19:10;;;;;;;19.75;12.88;;;;;;;13.38;45.43;98898.34;5065589;28;45351;-82
2021/03/06 10:21:35;;;;;;;18.92;12.27;;;;;;;13.30;45.89;98900.16;5065624;28;45327;-82
2021/03/06 10:24:03;;;;;;;17.52;12.38;;;;;;;13.17;45.45;98896.06;5075743;27;45386;-81
2021/03/06 10:26:29;;;;;;;20.50;12.57;;;;;;;12.93;46.48;98897.56;5057957;28;45367;-84
2021/03/06 10:29:00;;;;;;;16.80;11.75;;;;;;;12.88;46.54;98899.88;5060544;28;45676;-81
2021/03/06 10:31:37;;;;;;;19.85;12.48;;;;;;;12.81;47.80;98898.81;5064612;28;46292;-82
2021/03/06 10:34:19;;;;;;;19.25;13.27;;;;;;;12.75;45.93;98897.59;5061419;28;45276;-82
2021/03/06 10:36:45;;;;;;;19.13;11.93;;;;;;;12.35;46.24;98896.22;5076143;28;45387;-81
2021/03/06 10:39:20;;;;;;;23.08;11.07;;;;;;;12.24;46.07;98898.13;5070382;28;45327;-82
2021/03/06 10:41:55;;;;;;;16.52;11.60;;;;;;;12.44;47.21;98899.84;5079079;27;46291;-82
2021/03/06 10:44:21;;;;;;;19.58;12.48;;;;;;;12.53;48.75;98893.56;5073330;28;45412;-85
2021/03/06 10:46:58;;;;;;;17.83;11.85;;;;;;;12.61;46.90;98898.97;5073770;28;45291;-81
2021/03/06 10:49:34;;;;;;;17.92;11.82;;;;;;;12.29;46.21;98905.66;5075896;28;45526;-82
2021/03/06 10:52:00;;;;;;;17.80;12.15;;;;;;;12.31;46.13;98898.34;5077497;27;46499;-80
2021/03/06 10:54:25;;;;;;;17.30;12.35;;;;;;;12.49;47.58;98893.03;5072501;28;45513;-82
2021/03/06 10:57:05;;;;;;;18.20;12.40;;;;;;;12.65;46.79;98899.50;5069164;28;45586;-84
2021/03/06 10:59:34;;;;;;;17.80;12.13;;;;;;;12.78;46.83;98893.78;5074091;28;45310;-82
2021/03/06 11:01:59;;;;;;;18.45;12.55;;;;;;;12.82;47.26;98892.47;5071237;28;46005;-84
2021/03/06 11:04:36;;;;;;;20.83;12.13;;;;;;;12.77;47.50;98895.59;5070302;28;45179;-82
2021/03/06 11:07:05;;;;;;;22.90;12.45;;;;;;;12.66;47.30;98894.03;5069118;28;45403;-83
2021/03/06 11:09:41;;;;;;;19.98;12.77;;;;;;;12.61;46.15;98890.13;5066486;28;45538;-84
2021/03/06 11:12:17;;;;;;;18.85;13.02;;;;;;;12.55;47.33;98886.25;5067200;28;46427;-90
2021/03/06 11:14:42;;;;;;;19.45;13.60;;;;;;;12.27;48.41;98886.31;5075393;28;46248;-83
2021/03/06 11:17:13;;;;;;;19.80;13.02;;;;;;;12.59;48.52;98886.78;5079425;27;46015;-84
2021/03/06 11:19:39;;;;;;;18.73;13.30;;;;;;;12.57;48.50;98883.41;5071926;27;45494;-86
2021/03/06 11:22:04;;;;;;;19.08;13.07;;;;;;;12.37;46.29;98881.78;5078206;28;47223;-81
2021/03/06 11:24:30;;;;;;;19.65;12.57;;;;;;;12.38;49.48;98887.94;5077752;27;45458;-82
2021/03/06 11:26:57;;;;;;;16.10;12.13;;;;;;;12.32;47.49;98878.69;5062334;27;45319;-86
2021/03/06 11:29:23;;;;;;;19.52;13.02;;;;;;;12.42;48.46;98885.81;5068610;28;45420;-82
2021/03/06 11:31:48;;;;;;;18.65;13.20;;;;;;;12.34;48.44;98879.38;5065800;28;46048;-83